Time;durP1;ratioP1;P1;durP2;ratioP2;P2;SDS_P1;SDS_P2;PMS_P1;PMS_P2;Temp;Humidity;BMP_temperature;BMP_pressure;BME280_temperature;BME280_humidity;BME280_pressure;Samples;Min_cycle;Max_cycle;Signal;HPM_P1;HPM_P2
2024/01/15 00:00:18;;;;;;;5.43;2.40;;;;;;;9.13;100.00;97647.97;6245871;22;20020;-93
2024/01/15 00:05:50;;;;;;;5.30;2.42;;;;;;;9.17;100.00;97627.50;6229067;23;20047;-94
2024/01/15 00:08:16;;;;;;;3.28;2.15;;;;;;;9.71;100.00;97704.94;6248749;23;20350;-93
2024/01/15 00:10:45;;;;;;;4.70;2.35;;;;;;;9.84;100.00;97738.03;6248968;22;20004;-96
2024/01/15 00:13:12;;;;;;;3.75;2.10;;;;;;;9.95;100.00;97743.75;6249094;23;20073;-96
2024/01/15 00:15:40;;;;;;;4.60;2.35;;;;;;;10.02;100.00;97737.28;6246320;23;20020;-93
2024/01/15 00:18:06;;;;;;;4.68;2.33;;;;;;;9.23;100.00;97593.63;6249984;23;20023;-94
2024/01/15 00:20:38;;;;;;;4.63;2.20;;;;;;;9.16;100.00;97592.16;6250730;22;20024;-94
2024/01/15 00:23:04;;;;;;;4.72;2.15;;;;;;;9.71;100.00;97683.72;6250898;23;20028;-93
2024/01/15 00:25:30;;;;;;;3.83;2.10;;;;;;;9.01;100.00;97588.31;6249619;23;20110;-92
2024/01/15 00:27:56;;;;;;;3.47;1.90;;;;;;;9.13;100.00;97600.25;6252149;23;20020;-94
2024/01/15 00:30:23;;;;;;;2.92;1.75;;;;;;;9.33;100.00;97641.88;6249621;23;20517;-95
2024/01/15 00:32:51;;;;;;;4.85;1.92;;;;;;;9.05;100.00;97579.31;6254815;22;20115;-93
2024/01/15 00:35:17;;;;;;;2.75;1.83;;;;;;;9.66;100.00;97683.91;6280653;22;20016;-95
2024/01/15 00:37:43;;;;;;;2.65;1.65;;;;;;;9.57;100.00;97653.28;6255649;22;20102;-93
2024/01/15 00:40:10;;;;;;;3.38;1.92;;;;;;;9.07;100.00;97575.75;6255235;22;20157;-94
2024/01/15 00:42:38;;;;;;;6.25;1.92;;;;;;;9.16;100.00;97583.34;6255142;22;20020;-93
2024/01/15 00:45:08;;;;;;;4.97;2.03;;;;;;;9.16;100.00;97578.03;6250939;22;20027;-95
2024/01/15 00:47:47;;;;;;;3.72;2.38;;;;;;;8.94;100.00;97554.19;6254483;22;20054;-92
2024/01/15 00:50:30;;;;;;;3.35;1.98;;;;;;;9.32;100.00;97613.59;6253046;22;20110;-94
2024/01/15 00:53:16;;;;;;;4.63;1.98;;;;;;;9.88;100.00;97715.75;6260085;22;20077;-95
2024/01/15 00:55:54;;;;;;;3.72;2.20;;;;;;;9.68;100.00;97665.25;6253851;22;20019;-94
2024/01/15 00:59:00;;;;;;;4.60;2.47;;;;;;;9.72;100.00;97665.06;6254483;22;20016;-94
2024/01/15 01:01:33;;;;;;;4.30;2.25;;;;;;;9.56;100.00;97640.06;6249015;22;20020;-94
2024/01/15 01:04:08;;;;;;;3.63;2.35;;;;;;;9.60;100.00;97653.16;6249828;22;20414;-94
2024/01/15 01:06:37;;;;;;;4.78;2.42;;;;;;;9.42;100.00;97636.19;6252380;22;20085;-91
2024/01/15 01:09:29;;;;;;;5.75;3.72;;;;;;;9.33;100.00;97602.09;6253761;22;20406;-94
2024/01/15 01:12:35;;;;;;;4.57;2.88;;;;;;;8.71;100.00;97510.88;6254767;22;20046;-93
2024/01/15 01:15:38;;;;;;;4.85;2.85;;;;;;;9.00;100.00;97532.69;6252269;22;20038;-94
2024/01/15 01:18:13;;;;;;;5.82;2.58;;;;;;;9.70;100.00;97650.13;6253870;22;20020;-93
2024/01/15 01:20:40;;;;;;;5.32;2.72;;;;;;;9.19;100.00;97560.19;6254658;22;20475;-95
2024/01/15 01:23:18;;;;;;;4.63;2.75;;;;;;;9.90;100.00;97644.00;6253736;22;20027;-94
2024/01/15 01:25:49;;;;;;;5.97;3.03;;;;;;;9.43;100.00;97557.44;6253872;22;20098;-95
2024/01/15 01:28:15;;;;;;;9.88;3.58;;;;;;;9.13;100.00;97498.56;6254451;22;20015;-94
2024/01/15 01:30:41;;;;;;;6.90;3.53;;;;;;;9.01;100.00;97514.06;6251829;22;20023;-94
2024/01/15 01:33:09;;;;;;;4.70;2.95;;;;;;;9.57;100.00;97576.31;6255153;22;20055;-94
2024/01/15 01:35:40;;;;;;;5.95;3.28;;;;;;;9.36;100.00;97529.47;6255581;22;20016;-93
2024/01/15 01:38:06;;;;;;;5.13;2.78;;;;;;;9.92;100.00;97634.16;6254933;22;20030;-92
2024/01/15 01:40:34;;;;;;;5.10;2.85;;;;;;;9.07;100.00;97522.72;6255609;22;20106;-92
2024/01/15 01:43:02;;;;;;;6.07;3.00;;;;;;;9.36;100.00;97553.34;6251842;22;20026;-93
2024/01/15 01:45:31;;;;;;;6.55;3.20;;;;;;;8.90;100.00;97483.63;6251556;22;20031;-93
2024/01/15 01:47:59;;;;;;;6.05;2.97;;;;;;;9.03;100.00;97516.69;6255349;22;20016;-96
2024/01/15 01:50:25;;;;;;;4.80;3.10;;;;;;;9.90;100.00;97607.66;6254462;22;20480;-92
2024/01/15 01:52:55;;;;;;;5.93;3.35;;;;;;;9.86;100.00;97582.16;6254227;22;20027;-93
2024/01/15 01:55:26;;;;;;;8.60;3.60;;;;;;;9.36;100.00;97498.47;6255558;22;20020;-93
2024/01/15 01:57:57;;;;;;;5.75;3.40;;;;;;;9.82;100.00;97576.16;6256058;22;20019;-94
2024/01/15 02:04:21;;;;;;;7.18;3.55;;;;;;;9.29;100.00;97448.41;6234669;22;20054;-94
2024/01/15 02:07:17;;;;;;;4.68;2.55;;;;;;;9.42;100.00;97477.00;6255746;22;20077;-94
2024/01/15 02:10:14;;;;;;;4.55;2.50;;;;;;;9.08;100.00;97424.53;6255897;22;20016;-94
2024/01/15 02:13:14;;;;;;;4.75;2.90;;;;;;;9.37;100.00;97459.56;6262077;22;20093;-94
2024/01/15 02:15:48;;;;;;;5.47;2.67;;;;;;;10.08;100.00;97582.97;6254800;22;20024;-93
2024/01/15 02:21:32;;;;;;;7.15;2.88;;;;;;;10.01;100.00;97554.94;6165612;23;20208;-93
2024/01/15 02:24:00;;;;;;;4.13;2.22;;;;;;;9.35;100.00;97450.81;6164645;23;20021;-94
2024/01/15 02:26:26;;;;;;;4.00;2.38;;;;;;;10.02;100.00;97566.44;6167558;23;20051;-94
2024/01/15 02:28:52;;;;;;;4.35;2.28;;;;;;;9.58;100.00;97493.09;6167427;23;20021;-92
2024/01/15 02:31:18;;;;;;;5.13;2.72;;;;;;;9.96;100.00;97566.72;6166275;23;20021;-93
2024/01/15 02:33:46;;;;;;;7.10;3.08;;;;;;;9.52;100.00;97504.00;6164850;23;20025;-92
2024/01/15 02:36:18;;;;;;;6.28;2.50;;;;;;;9.19;100.00;97432.88;6167595;23;20462;-94
2024/01/15 02:38:44;;;;;;;4.95;2.50;;;;;;;9.91;100.00;97555.41;6167934;23;20055;-94
2024/01/15 02:41:14;;;;;;;3.85;2.45;;;;;;;8.91;100.00;97376.66;6169061;23;20025;-94
2024/01/15 02:43:39;;;;;;;6.93;3.10;;;;;;;9.76;100.00;97518.00;6166073;23;20017;-93
2024/01/15 02:46:06;;;;;;;9.32;3.92;;;;;;;9.91;100.00;97535.06;6163028;23;20076;-95
2024/01/15 02:48:35;;;;;;;6.25;3.58;;;;;;;9.31;100.00;97458.03;6166861;23;20149;-93
2024/01/15 02:51:01;;;;;;;8.32;3.53;;;;;;;9.62;100.00;97513.28;6165634;23;20001;-94
2024/01/15 02:53:27;;;;;;;6.63;3.13;;;;;;;8.92;100.00;97395.16;6163985;23;20172;-93
2024/01/15 02:55:55;;;;;;;8.95;2.92;;;;;;;9.20;100.00;97462.94;6164094;23;20339;-92
2024/01/15 02:58:22;;;;;;;7.03;3.05;;;;;;;9.03;100.00;97407.97;6215285;22;20392;-94
2024/01/15 03:00:48;;;;;;;6.90;3.35;;;;;;;9.05;100.00;97409.63;6251284;22;20599;-95
2024/01/15 03:03:17;;;;;;;5.90;3.45;;;;;;;8.73;100.00;97373.84;6254809;22;20019;-95
2024/01/15 03:05:48;;;;;;;4.93;2.95;;;;;;;9.73;100.00;97515.47;6254588;22;20069;-93
2024/01/15 03:08:17;;;;;;;6.38;3.13;;;;;;;9.42;100.00;97462.88;6254780;22;20102;-94
2024/01/15 03:10:49;;;;;;;5.15;2.83;;;;;;;9.48;100.00;97464.38;6254777;22;20026;-94
2024/01/15 03:13:16;;;;;;;8.43;2.80;;;;;;;8.79;100.00;97355.06;6255688;22;20036;-95
2024/01/15 03:15:44;;;;;;;5.15;2.67;;;;;;;8.75;100.00;97326.94;6253463;22;20043;-94
2024/01/15 03:18:17;;;;;;;4.43;2.70;;;;;;;8.79;100.00;97340.94;6254135;22;20027;-93
2024/01/15 03:20:43;;;;;;;6.25;2.70;;;;;;;8.93;100.00;97349.16;6253479;22;20035;-94
2024/01/15 03:23:09;;;;;;;5.13;2.55;;;;;;;9.67;100.00;97481.22;6254007;22;20016;-93
2024/01/15 03:25:44;;;;;;;7.03;3.05;;;;;;;9.22;100.00;97390.31;6254341;22;20377;-93
2024/01/15 03:28:20;;;;;;;6.18;2.83;;;;;;;9.70;100.00;97469.63;6253276;22;20011;-92
2024/01/15 03:31:07;;;;;;;5.07;2.70;;;;;;;8.77;100.00;97322.44;6250952;22;20016;-92
2024/01/15 03:33:38;;;;;;;6.40;2.60;;;;;;;9.36;100.00;97444.56;6248021;22;20031;-95
2024/01/15 03:36:33;;;;;;;6.80;2.70;;;;;;;8.76;100.00;97318.09;6248080;22;20070;-92
2024/01/15 03:39:30;;;;;;;4.03;2.38;;;;;;;9.69;100.00;97452.81;6248110;23;20051;-95
2024/01/15 03:41:58;;;;;;;4.82;2.63;;;;;;;9.52;100.00;97450.94;6171693;23;20028;-92
2024/01/15 03:44:27;;;;;;;3.85;2.40;;;;;;;9.07;100.00;97356.53;6248061;23;20127;-92
2024/01/15 03:46:54;;;;;;;4.88;2.38;;;;;;;9.48;100.00;97420.16;6245439;23;20324;-94
2024/01/15 03:49:28;;;;;;;8.98;2.80;;;;;;;9.19;100.00;97349.81;6246506;23;20016;-93
2024/01/15 03:51:59;;;;;;;5.20;2.28;;;;;;;9.33;100.00;97355.38;6246554;23;20036;-94
2024/01/15 03:54:26;;;;;;;4.28;2.40;;;;;;;9.27;100.00;97358.28;6247598;23;20022;-94
2024/01/15 03:57:00;;;;;;;5.97;2.50;;;;;;;9.48;100.00;97403.34;6247470;23;20023;-94
2024/01/15 03:59:26;;;;;;;4.45;2.10;;;;;;;8.71;100.00;97269.69;6248064;23;20035;-93
2024/01/15 04:01:54;;;;;;;2.92;1.60;;;;;;;8.80;100.00;97292.28;6246172;22;20442;-93
2024/01/15 04:04:54;;;;;;;4.13;2.40;;;;;;;8.97;100.00;97312.75;6248358;23;20027;-92
2024/01/15 04:08:11;;;;;;;3.80;2.00;;;;;;;9.81;100.00;97433.69;6010383;23;20410;-93
2024/01/15 04:11:02;;;;;;;4.95;1.80;;;;;;;9.72;100.00;97412.88;6051834;23;20022;-93
2024/01/15 04:13:32;;;;;;;5.70;2.17;;;;;;;9.78;100.00;97427.66;6102464;23;20026;-94
2024/01/15 04:15:58;;;;;;;5.50;1.83;;;;;;;8.98;100.00;97274.75;6098828;23;20474;-93
2024/01/15 04:18:29;;;;;;;4.40;2.22;;;;;;;9.94;100.00;97411.91;6102635;23;20037;-94
2024/01/15 04:20:54;;;;;;;3.15;1.95;;;;;;;9.01;100.00;97270.13;6103007;23;20018;-94
2024/01/15 04:23:56;;;;;;;;;;;;;;;;;;;;;
2024/01/15 04:26:29;;;;;;;4.38;1.90;;;;;;;9.21;100.00;97284.28;6102532;23;20113;-94
2024/01/15 04:28:55;;;;;;;4.28;1.85;;;;;;;9.48;100.00;97326.41;6102744;23;20022;-95
2024/01/15 04:31:33;;;;;;;;;;;;;;;;;;;;;
2024/01/15 04:34:03;;;;;;;6.80;3.10;;;;;;;9.16;100.00;97276.53;6115616;23;20026;-93
2024/01/15 04:37:07;;;;;;;3.83;2.58;;;;;;;9.38;100.00;97310.06;6131534;23;20032;-92
2024/01/15 04:40:17;;;;;;;5.18;2.63;;;;;;;9.58;100.00;97344.47;6130508;23;20472;-94
2024/01/15 04:42:49;;;;;;;3.53;2.03;;;;;;;9.11;100.00;97264.41;6119247;23;20055;-92
2024/01/15 04:45:28;;;;;;;3.92;1.77;;;;;;;9.17;100.00;97286.25;6188336;23;20017;-93
2024/01/15 04:48:01;;;;;;;4.28;1.80;;;;;;;9.17;100.00;97275.63;6192313;23;20028;-95
2024/01/15 04:50:31;;;;;;;5.03;1.85;;;;;;;9.30;100.00;97293.63;6191582;23;20024;-93
2024/01/15 04:52:57;;;;;;;4.93;2.03;;;;;;;8.90;100.00;97226.50;6191803;23;20104;-92
2024/01/15 04:55:26;;;;;;;5.03;1.90;;;;;;;9.00;100.00;97267.53;6191709;23;20046;-92
2024/01/15 04:57:55;;;;;;;4.68;2.03;;;;;;;9.44;100.00;97328.34;6190750;23;20052;-93
2024/01/15 05:00:22;;;;;;;4.18;2.35;;;;;;;9.62;100.00;97356.69;6188080;23;20083;-92
2024/01/15 05:02:48;;;;;;;5.43;2.60;;;;;;;9.71;100.00;97365.16;6191730;23;20016;-93
2024/01/15 05:05:17;;;;;;;6.35;3.53;;;;;;;9.25;100.00;97313.25;6191540;23;20020;-93
2024/01/15 05:07:44;;;;;;;7.38;3.10;;;;;;;9.55;100.00;97339.34;6191857;23;20443;-94
2024/01/15 05:10:10;;;;;;;7.47;2.80;;;;;;;9.31;100.00;97292.72;6190090;23;20049;-93
2024/01/15 05:12:39;;;;;;;4.00;2.30;;;;;;;9.73;100.00;97337.59;6191473;23;20036;-92
2024/01/15 05:15:05;;;;;;;4.47;2.33;;;;;;;9.49;100.00;97323.69;6188024;23;20019;-93
2024/01/15 05:17:33;;;;;;;4.43;2.00;;;;;;;9.87;100.00;97376.81;6191996;23;20107;-94
2024/01/15 05:19:59;;;;;;;6.45;2.53;;;;;;;9.44;100.00;97289.41;6191741;23;20025;-93
2024/01/15 05:22:28;;;;;;;5.22;2.30;;;;;;;9.88;100.00;97365.25;6192084;23;20115;-95
2024/01/15 05:24:58;;;;;;;6.80;2.50;;;;;;;8.69;100.00;97191.19;6191796;23;20031;-94
2024/01/15 05:27:24;;;;;;;4.57;2.60;;;;;;;9.51;100.00;97351.00;6191518;23;20016;-92
2024/01/15 05:29:50;;;;;;;8.35;2.55;;;;;;;8.80;100.00;97223.38;6191076;23;20019;-93
2024/01/15 05:32:16;;;;;;;3.97;2.28;;;;;;;8.70;100.00;97207.03;6188391;23;20128;-93
2024/01/15 05:34:42;;;;;;;4.28;2.90;;;;;;;9.61;100.00;97354.97;6219153;22;20043;-94
2024/01/15 05:37:23;;;;;;;5.32;3.08;;;;;;;8.68;100.00;97206.25;6251740;22;20514;-94
2024/01/15 05:39:49;;;;;;;5.13;2.88;;;;;;;8.94;100.00;97251.94;6252086;22;20016;-94
2024/01/15 05:42:26;;;;;;;4.97;2.83;;;;;;;9.25;100.00;97318.56;6251145;22;20020;-95
2024/01/15 05:45:07;;;;;;;6.85;3.00;;;;;;;8.76;100.00;97206.78;6251989;22;20091;-94
2024/01/15 05:47:38;;;;;;;11.75;3.40;;;;;;;9.23;100.00;97263.88;6253464;22;20024;-93
2024/01/15 05:50:10;;;;;;;6.45;3.53;;;;;;;8.99;100.00;97228.72;6251640;22;20023;-94
2024/01/15 05:52:48;;;;;;;6.85;3.47;;;;;;;8.73;100.00;97185.69;6252233;22;20030;-94
2024/01/15 05:55:18;;;;;;;5.60;3.40;;;;;;;8.90;100.00;97215.88;6252083;22;20058;-94
2024/01/15 05:57:51;;;;;;;6.45;3.35;;;;;;;8.86;100.00;97209.84;6277586;22;20020;-93
2024/01/15 06:00:20;;;;;;;5.05;3.15;;;;;;;8.68;100.00;97185.06;6247273;22;20033;-92
2024/01/15 06:02:48;;;;;;;6.75;4.32;;;;;;;9.57;100.00;97342.78;6249526;22;20327;-92
2024/01/15 06:05:17;;;;;;;5.50;3.25;;;;;;;9.65;100.00;97348.59;6251730;22;20038;-94
2024/01/15 06:07:42;;;;;;;9.18;3.70;;;;;;;9.29;100.00;97292.75;6253165;22;20029;-93
2024/01/15 06:10:09;;;;;;;11.77;4.00;;;;;;;9.32;100.00;97299.72;6251152;22;20039;-92
2024/01/15 06:12:35;;;;;;;6.88;3.55;;;;;;;9.24;100.00;97298.28;6251501;22;20023;-95
2024/01/15 06:15:02;;;;;;;6.13;3.22;;;;;;;8.98;100.00;97257.03;6254364;22;20089;-94
2024/01/15 06:17:28;;;;;;;5.95;3.95;;;;;;;9.39;100.00;97295.84;6256210;22;20023;-93
2024/01/15 06:19:54;;;;;;;5.50;2.92;;;;;;;9.64;100.00;97343.34;6258383;22;20015;-94
2024/01/15 06:22:20;;;;;;;7.20;3.92;;;;;;;9.55;100.00;97341.97;6258166;22;20043;-94
2024/01/15 06:24:46;;;;;;;6.43;3.47;;;;;;;9.01;100.00;97248.06;6284168;22;20024;-95
2024/01/15 06:27:12;;;;;;;6.95;3.60;;;;;;;9.11;100.00;97245.84;6259663;22;20016;-94
2024/01/15 06:29:44;;;;;;;5.88;3.05;;;;;;;9.49;100.00;97322.84;6255575;22;20016;-94
2024/01/15 06:32:12;;;;;;;6.13;3.28;;;;;;;8.69;100.00;97201.81;6252258;22;20062;-95
2024/01/15 06:34:39;;;;;;;7.03;3.58;;;;;;;9.50;100.00;97362.56;6255386;22;20323;-94
2024/01/15 06:37:05;;;;;;;6.90;3.38;;;;;;;8.75;100.00;97242.13;6254619;22;20015;-94
2024/01/15 06:39:31;;;;;;;10.05;4.50;;;;;;;8.47;100.00;97246.94;6255590;22;20020;-94
2024/01/15 06:41:57;;;;;;;11.75;5.18;;;;;;;8.62;100.00;97272.75;6257892;22;20510;-94
2024/01/15 06:44:44;;;;;;;8.88;3.75;;;;;;;8.83;100.00;97260.38;6255415;22;20019;-94
2024/01/15 06:47:32;;;;;;;11.70;3.90;;;;;;;8.98;100.00;97283.53;6256949;22;19999;-95
2024/01/15 06:49:58;;;;;;;7.63;3.58;;;;;;;8.79;100.00;97206.63;6260969;22;20012;-94
2024/01/15 06:52:27;;;;;;;11.43;3.85;;;;;;;9.39;100.00;97325.03;6260446;22;20016;-96
2024/01/15 06:54:56;;;;;;;8.57;4.10;;;;;;;8.92;100.00;97229.94;6257517;22;20074;-94
2024/01/15 06:57:25;;;;;;;9.80;3.83;;;;;;;9.62;100.00;97342.56;6258018;22;20004;-94
2024/01/15 06:59:56;;;;;;;5.68;3.35;;;;;;;8.92;100.00;97222.84;6259807;22;20468;-95
2024/01/15 07:02:36;;;;;;;9.13;3.05;;;;;;;9.13;100.00;97234.25;6261421;22;20070;-94
2024/01/15 07:05:21;;;;;;;6.32;3.10;;;;;;;9.51;100.00;97303.25;6260269;22;20038;-95
2024/01/15 07:07:47;;;;;;;6.97;3.65;;;;;;;8.98;100.00;97243.78;6260062;22;20031;-95
2024/01/15 07:10:14;;;;;;;9.48;3.80;;;;;;;8.99;100.00;97224.28;6262591;22;20015;-95
2024/01/15 07:12:42;;;;;;;7.68;3.78;;;;;;;8.97;100.00;97219.97;6262031;22;20023;-95
2024/01/15 07:15:17;;;;;;;8.68;4.20;;;;;;;9.05;100.00;97241.72;6261591;22;20030;-95
2024/01/15 07:17:46;;;;;;;8.05;4.28;;;;;;;8.83;100.00;97224.13;6258482;22;20019;-96
2024/01/15 07:20:19;;;;;;;7.65;3.88;;;;;;;8.89;100.00;97228.28;6260247;22;20015;-96
2024/01/15 07:22:50;;;;;;;12.70;5.13;;;;;;;9.77;100.00;97364.88;6261893;22;20083;-95
2024/01/15 07:25:21;;;;;;;9.38;4.32;;;;;;;9.67;100.00;97353.81;6261611;22;20145;-95
2024/01/15 07:27:47;;;;;;;23.05;8.95;;;;;;;8.96;100.00;97235.03;6261840;22;20100;-95
2024/01/15 07:30:17;;;;;;;29.65;9.95;;;;;;;9.72;100.00;97380.19;6260405;22;20069;-95
2024/01/15 07:32:52;;;;;;;35.58;11.75;;;;;;;8.93;100.00;97236.94;6261955;22;20016;-95
2024/01/15 07:35:32;;;;;;;16.20;8.20;;;;;;;9.82;100.00;97397.38;6261709;22;20020;-94
2024/01/15 07:37:58;;;;;;;10.48;4.88;;;;;;;8.97;100.00;97247.34;6262121;22;20016;-94
2024/01/15 07:40:24;;;;;;;9.68;5.00;;;;;;;9.59;100.00;97329.44;6260430;22;20434;-95
2024/01/15 07:42:55;;;;;;;10.00;5.47;;;;;;;9.09;100.00;97234.47;6259786;22;20019;-95
2024/01/15 07:45:30;;;;;;;11.82;5.72;;;;;;;9.25;100.00;97262.84;6260286;22;20016;-96
2024/01/15 07:47:56;;;;;;;13.75;6.22;;;;;;;9.30;100.00;97281.22;6260165;22;20019;-96
2024/01/15 07:50:30;;;;;;;10.60;4.82;;;;;;;9.00;100.00;97241.03;6259911;22;20023;-95
2024/01/15 07:52:56;;;;;;;10.80;5.75;;;;;;;9.45;100.00;97324.75;6260165;22;20016;-95
2024/01/15 07:55:32;;;;;;;14.13;5.05;;;;;;;9.61;100.00;97349.66;6260499;22;20015;-95
2024/01/15 07:57:59;;;;;;;15.32;4.45;;;;;;;9.41;100.00;97313.44;6261976;22;20342;-94
2024/01/15 08:00:27;;;;;;;7.53;4.30;;;;;;;9.01;100.00;97258.69;6261259;22;20463;-96
2024/01/15 08:02:55;;;;;;;7.95;4.50;;;;;;;9.05;100.00;97253.16;6261082;22;20026;-94
2024/01/15 08:05:22;;;;;;;10.70;4.55;;;;;;;9.92;100.00;97396.03;6261087;22;20027;-95
2024/01/15 08:07:52;;;;;;;17.70;5.35;;;;;;;9.23;100.00;97295.69;6260622;22;20039;-93
2024/01/15 08:10:18;;;;;;;11.25;5.55;;;;;;;9.34;100.00;97317.28;6260457;22;20026;-94
2024/01/15 08:12:47;;;;;;;11.10;5.38;;;;;;;9.58;100.00;97370.16;6258238;22;20047;-92
2024/01/15 08:15:13;;;;;;;12.95;5.60;;;;;;;9.31;100.00;97313.94;6256860;22;20023;-94
2024/01/15 08:17:39;;;;;;;10.85;4.85;;;;;;;9.97;100.00;97414.41;6258917;22;20020;-93
2024/01/15 08:20:05;;;;;;;9.77;5.35;;;;;;;9.04;100.00;97267.38;6259327;22;20023;-95
2024/01/15 08:22:31;;;;;;;9.75;4.97;;;;;;;10.08;100.00;97423.63;6261009;22;20012;-95
2024/01/15 08:25:01;;;;;;;9.13;4.78;;;;;;;9.36;100.00;97309.25;6261131;22;20023;-95
2024/01/15 08:27:32;;;;;;;13.45;5.40;;;;;;;9.54;100.00;97342.94;6261432;22;20022;-94
2024/01/15 08:29:58;;;;;;;16.08;5.43;;;;;;;9.25;100.00;97292.03;6260768;22;20020;-94
2024/01/15 08:32:24;;;;;;;12.13;6.10;;;;;;;9.21;100.00;97289.59;6260869;22;20035;-95
2024/01/15 08:34:52;;;;;;;12.52;5.40;;;;;;;9.15;100.00;97274.84;6255639;22;20020;-95
2024/01/15 08:37:19;;;;;;;13.43;7.18;;;;;;;9.14;100.00;97275.75;6256409;22;20016;-94
2024/01/15 08:39:45;;;;;;;13.57;6.97;;;;;;;9.60;100.00;97353.25;6255391;22;20026;-94
2024/01/15 08:42:13;;;;;;;12.70;6.50;;;;;;;9.77;100.00;97396.75;6255310;23;20027;-95
2024/01/15 08:44:43;;;;;;;23.10;9.90;;;;;;;10.04;100.00;97432.66;6255648;22;20059;-96
2024/01/15 08:47:09;;;;;;;17.38;6.90;;;;;;;9.72;100.00;97382.81;6254903;23;20020;-94
2024/01/15 08:49:52;;;;;;;16.88;6.85;;;;;;;9.26;100.00;97319.44;6254436;23;20020;-94
2024/01/15 08:52:21;;;;;;;16.10;7.82;;;;;;;9.50;100.00;97362.56;6254648;23;20020;-94
2024/01/15 08:54:47;;;;;;;22.23;9.15;;;;;;;9.52;100.00;97366.03;6254107;23;20158;-94
2024/01/15 08:57:17;;;;;;;18.13;8.10;;;;;;;9.72;100.00;97404.06;6254651;22;20003;-95
2024/01/15 08:59:45;;;;;;;13.30;6.07;;;;;;;9.90;100.00;97444.84;6255249;23;20007;-95
2024/01/15 09:02:13;;;;;;;13.07;5.93;;;;;;;9.50;100.00;97380.25;6253891;23;20439;-96
2024/01/15 09:04:39;;;;;;;14.60;5.57;;;;;;;9.74;100.00;97428.75;6253678;23;20046;-95
2024/01/15 09:07:08;;;;;;;10.23;5.93;;;;;;;9.73;100.00;97421.69;6253764;23;20070;-95
2024/01/15 09:09:34;;;;;;;11.13;6.30;;;;;;;9.01;100.00;97317.88;6254458;23;20023;-94
2024/01/15 09:12:05;;;;;;;13.18;5.70;;;;;;;8.97;100.00;97336.63;6252379;23;20103;-94
2024/01/15 09:14:56;;;;;;;11.73;5.57;;;;;;;9.35;100.00;97395.09;6254766;22;20020;-96
2024/01/15 09:17:30;;;;;;;8.82;4.75;;;;;;;9.36;100.00;97370.28;6254699;23;20012;-96
2024/01/15 09:19:59;;;;;;;13.23;5.55;;;;;;;10.02;100.00;97479.66;6254328;23;20435;-95
2024/01/15 09:22:30;;;;;;;11.45;5.60;;;;;;;9.87;100.00;97445.84;6253735;23;20027;-95
2024/01/15 09:25:10;;;;;;;13.23;6.10;;;;;;;9.14;100.00;97327.94;6254614;23;20027;-95
2024/01/15 09:27:37;;;;;;;13.48;5.70;;;;;;;9.36;100.00;97357.00;6253269;22;20020;-95
2024/01/15 09:30:38;;;;;;;12.07;6.35;;;;;;;9.08;100.00;97328.19;6249358;22;20118;-95
2024/01/15 09:33:12;;;;;;;11.75;6.82;;;;;;;8.99;100.00;97309.13;6254689;22;20027;-96
2024/01/15 09:35:44;;;;;;;12.80;6.28;;;;;;;9.08;100.00;97318.44;6258132;22;20065;-95
2024/01/15 09:38:23;;;;;;;16.55;7.55;;;;;;;9.89;100.00;97443.97;6258343;22;20012;-95
2024/01/15 09:41:10;;;;;;;14.32;7.20;;;;;;;9.18;100.00;97298.56;6258240;22;20016;-94
2024/01/15 09:43:42;;;;;;;13.98;7.45;;;;;;;9.47;100.00;97322.88;6256472;22;20020;-95
2024/01/15 09:46:13;;;;;;;13.02;8.15;;;;;;;9.38;100.00;97300.28;6256590;22;20020;-94
2024/01/15 09:48:54;;;;;;;13.73;7.47;;;;;;;10.08;100.00;97406.78;6258077;22;20043;-96
2024/01/15 09:51:49;;;;;;;14.40;7.68;;;;;;;10.23;100.00;97451.22;6283820;22;20012;-96
2024/01/15 09:54:22;;;;;;;17.10;7.40;;;;;;;9.31;100.00;97313.94;6126443;22;20022;-95
2024/01/15 09:56:54;;;;;;;11.60;6.97;;;;;;;9.98;100.00;97417.00;6259416;22;20019;-94
2024/01/15 09:59:25;;;;;;;23.95;7.00;;;;;;;9.29;100.00;97307.81;6258097;22;20162;-94
2024/01/15 10:01:58;;;;;;;16.27;8.07;;;;;;;10.09;100.00;97440.41;6256504;22;20019;-95
2024/01/15 10:04:24;;;;;;;12.77;7.10;;;;;;;9.55;100.00;97335.81;6257854;22;20020;-95
2024/01/15 10:06:51;;;;;;;19.48;7.50;;;;;;;9.28;100.00;97266.31;6257832;22;20026;-95
2024/01/15 10:09:18;;;;;;;13.45;7.82;;;;;;;9.86;100.00;97353.81;6258405;22;20095;-94
2024/01/15 10:11:58;;;;;;;16.00;8.07;;;;;;;9.94;100.00;97342.84;6259126;22;20027;-93
2024/01/15 10:14:24;;;;;;;14.35;8.57;;;;;;;10.02;100.00;97324.78;6258899;22;20110;-95
2024/01/15 10:16:50;;;;;;;18.25;8.68;;;;;;;10.11;100.00;97326.97;6283651;22;20450;-94
2024/01/15 10:19:17;;;;;;;15.98;8.35;;;;;;;9.72;100.00;97245.66;6254314;22;20069;-92
2024/01/15 10:21:43;;;;;;;16.42;8.70;;;;;;;10.77;100.00;97399.97;6254284;22;20019;-93
2024/01/15 10:24:09;;;;;;;20.38;9.15;;;;;;;10.94;100.00;97353.94;6254302;22;20077;-92
2024/01/15 10:26:40;;;;;;;21.00;10.43;;;;;;;11.28;100.00;97369.00;6254832;22;20019;-92
2024/01/15 10:29:10;;;;;;;15.18;8.02;;;;;;;11.37;100.00;97347.22;6254475;22;20053;-92
2024/01/15 10:31:45;;;;;;;16.17;7.72;;;;;;;11.52;100.00;97365.03;6251507;22;20012;-93
2024/01/15 10:34:15;;;;;;;16.58;6.55;;;;;;;10.71;100.00;97246.94;6254371;22;20038;-93
2024/01/15 10:36:49;;;;;;;15.90;7.63;;;;;;;11.50;100.00;97390.03;6253683;22;20447;-92
2024/01/15 10:39:17;;;;;;;18.60;7.38;;;;;;;10.99;100.00;97301.34;6281046;22;20035;-91
2024/01/15 10:41:44;;;;;;;17.42;7.15;;;;;;;11.59;100.00;97356.72;6254116;22;20020;-92
2024/01/15 10:44:10;;;;;;;12.52;5.82;;;;;;;11.12;100.00;97305.06;6258199;22;20042;-94
2024/01/15 10:46:39;;;;;;;13.95;6.43;;;;;;;11.48;100.00;97357.31;6255651;22;20024;-93
2024/01/15 10:49:05;;;;;;;16.48;5.68;;;;;;;11.43;100.00;97314.09;6257401;22;20022;-94
2024/01/15 10:51:31;;;;;;;15.48;6.00;;;;;;;11.62;100.00;97320.13;6255092;22;20327;-94
2024/01/15 10:54:00;;;;;;;13.88;6.40;;;;;;;11.61;100.00;97294.47;6253710;22;20019;-94
2024/01/15 10:56:27;;;;;;;10.10;5.53;;;;;;;11.67;100.00;97299.44;6255129;22;20445;-94
2024/01/15 10:58:55;;;;;;;10.23;4.18;;;;;;;11.42;100.00;97227.19;6253855;22;20024;-96
2024/01/15 11:01:21;;;;;;;11.07;4.13;;;;;;;11.46;100.00;97280.19;6253247;22;20041;-93
2024/01/15 11:03:47;;;;;;;12.43;4.63;;;;;;;11.59;100.00;97245.75;6255783;22;20023;-93
2024/01/15 11:06:19;;;;;;;8.75;3.80;;;;;;;11.98;100.00;97295.09;6255301;22;20023;-94
2024/01/15 11:08:46;;;;;;;6.72;3.70;;;;;;;11.94;100.00;97296.22;6259060;22;20430;-96
2024/01/15 11:11:15;;;;;;;10.23;3.78;;;;;;;11.64;100.00;97254.34;6281068;22;20011;-95
2024/01/15 11:13:43;;;;;;;12.95;3.72;;;;;;;11.41;100.00;97249.44;6254872;22;20094;-94
2024/01/15 11:16:12;;;;;;;11.93;3.30;;;;;;;11.93;100.00;97294.53;6254305;22;20043;-93
2024/01/15 11:18:40;;;;;;;7.78;3.60;;;;;;;11.59;100.00;97248.41;6256309;22;20054;-95
2024/01/15 11:21:26;;;;;;;12.50;4.40;;;;;;;11.88;100.00;97284.13;6256483;22;20437;-95
2024/01/15 11:23:56;;;;;;;12.15;4.30;;;;;;;11.55;100.00;97264.66;6255817;22;20023;-96
2024/01/15 11:26:36;;;;;;;9.30;4.05;;;;;;;11.98;100.00;97327.06;6256061;22;20346;-95
2024/01/15 11:29:03;;;;;;;8.20;3.15;;;;;;;11.15;100.00;97173.72;6256935;22;20019;-93
2024/01/15 11:31:49;;;;;;;10.18;3.33;;;;;;;11.06;100.00;97173.28;6256435;22;20468;-95
2024/01/15 11:34:15;;;;;;;17.65;3.83;;;;;;;11.73;100.00;97295.56;6257416;22;20024;-94
2024/01/15 11:37:03;;;;;;;7.55;3.22;;;;;;;11.56;100.00;97261.03;6257473;22;20050;-93
2024/01/15 11:39:46;;;;;;;7.53;3.40;;;;;;;11.05;100.00;97181.31;6243804;22;20026;-95
2024/01/15 11:42:18;;;;;;;9.20;3.55;;;;;;;11.15;100.00;97174.56;6257144;22;20066;-95
2024/01/15 11:45:05;;;;;;;8.60;4.75;;;;;;;11.66;100.00;97232.97;6256765;22;20059;-95
2024/01/15 11:48:23;;;;;;;7.25;3.65;;;;;;;12.07;100.00;97227.97;6245956;22;20047;-95
2024/01/15 11:50:53;;;;;;;12.32;4.70;;;;;;;12.49;100.00;97249.53;6256255;22;20016;-96
2024/01/15 11:53:32;;;;;;;;;;;;;;;12.82;100.00;97309.84;6257681;22;20489;-96
2024/01/15 11:56:16;;;;;;;12.57;3.05;;;;;;;11.77;100.00;97171.09;6283469;22;19934;-95
2024/01/15 11:58:47;;;;;;;11.07;4.72;;;;;;;11.63;100.00;97167.44;6256949;22;20047;-93
2024/01/15 12:01:16;;;;;;;7.53;2.55;;;;;;;12.68;100.00;97311.50;6258807;22;20430;-96
2024/01/15 12:03:42;;;;;;;6.70;2.72;;;;;;;12.54;100.00;97285.66;6250933;22;20024;-93